createdAt,value
2022-10-22T00:01:50.192Z,97.6
2022-10-22T00:04:50.199Z,97.6
2022-10-22T00:07:50.220Z,97.6
2022-10-22T00:10:50.201Z,97.6
2022-10-22T00:13:50.219Z,97.6
2022-10-22T00:16:50.197Z,97.6
2022-10-22T00:19:50.203Z,97.6
2022-10-22T00:22:53.295Z,97.6
2022-10-22T00:25:50.230Z,97.7
2022-10-22T00:28:50.228Z,97.7
2022-10-22T00:31:50.252Z,97.8
2022-10-22T00:34:50.211Z,97.8
2022-10-22T00:37:50.210Z,97.8
2022-10-22T00:40:50.266Z,97.8
2022-10-22T00:43:50.291Z,97.9
2022-10-22T00:46:50.231Z,97.9
2022-10-22T00:49:50.313Z,97.9
2022-10-22T00:52:50.245Z,97.8
2022-10-22T00:55:50.259Z,97.8
2022-10-22T00:58:50.289Z,97.7
2022-10-22T01:01:50.327Z,97.7
2022-10-22T01:04:50.309Z,97.6
2022-10-22T01:07:50.328Z,97.6
2022-10-22T01:10:50.340Z,97.6
2022-10-22T01:13:50.368Z,97.5
2022-10-22T01:16:50.377Z,97.5
2022-10-22T01:19:50.416Z,97.5
2022-10-22T01:22:50.407Z,97.4
2022-10-22T01:25:50.424Z,97.4
2022-10-22T01:28:50.461Z,97.4
2022-10-22T01:31:50.460Z,97.4
2022-10-22T01:34:50.482Z,97.5
2022-10-22T01:37:50.519Z,97.5
2022-10-22T01:40:50.511Z,97.5
2022-10-22T01:43:50.555Z,97.5
2022-10-22T01:46:50.543Z,97.5
2022-10-22T01:49:50.568Z,97.4
2022-10-22T01:52:50.585Z,97.4
2022-10-22T01:55:50.626Z,97.4
2022-10-22T01:58:50.623Z,97.4
2022-10-22T02:01:50.615Z,97.5
2022-10-22T02:04:50.636Z,97.5
2022-10-22T02:07:50.657Z,97.5
2022-10-22T02:10:50.689Z,97.5
2022-10-22T02:13:50.735Z,97.6
2022-10-22T02:16:50.709Z,97.6
2022-10-22T02:19:50.734Z,97.6
2022-10-22T02:22:50.747Z,97.7
2022-10-22T02:25:50.764Z,97.7
2022-10-22T02:28:50.807Z,97.7
2022-10-22T02:31:50.814Z,97.5
2022-10-22T02:34:50.807Z,97.5
2022-10-22T02:37:50.824Z,97.4
2022-10-22T02:40:50.841Z,97.4
2022-10-22T02:43:50.877Z,97.4
2022-10-22T02:46:50.885Z,97.4
2022-10-22T02:49:50.913Z,97.5
2022-10-22T02:52:50.916Z,97.6
2022-10-22T02:55:50.938Z,97.7
2022-10-22T02:58:50.975Z,97.8
2022-10-22T03:01:50.985Z,97.8
2022-10-22T03:04:51.010Z,97.9
2022-10-22T03:07:51.062Z,97.9
2022-10-22T03:10:51.061Z,98
2022-10-22T03:13:51.104Z,97.9
2022-10-22T03:16:51.112Z,97.9
2022-10-22T03:19:51.135Z,97.9
2022-10-22T03:22:51.152Z,97.8
2022-10-22T03:25:51.231Z,97.8
2022-10-22T03:28:51.362Z,97.8
2022-10-22T03:31:51.206Z,97.7
2022-10-22T03:34:51.279Z,97.8
2022-10-22T03:37:51.249Z,97.8
2022-10-22T03:40:51.265Z,97.8
2022-10-22T03:43:51.332Z,97.9
2022-10-22T03:46:51.309Z,97.9
2022-10-22T03:49:51.341Z,98
2022-10-22T03:52:51.369Z,98
2022-10-22T03:55:51.390Z,98
2022-10-22T03:58:51.429Z,98
2022-10-22T04:01:51.460Z,97.9
2022-10-22T04:04:51.455Z,97.9
2022-10-22T04:07:51.482Z,97.9
2022-10-22T04:10:51.499Z,98
2022-10-22T04:13:51.536Z,98.1
2022-10-22T04:16:51.533Z,98.2
2022-10-22T04:19:51.688Z,98.3
2022-10-22T04:22:51.581Z,98.3
2022-10-22T04:25:51.604Z,98.4
2022-10-22T04:28:51.641Z,98.5
2022-10-22T04:31:51.634Z,98.5
2022-10-22T04:34:51.668Z,98.6
2022-10-22T04:37:51.709Z,98.6
2022-10-22T04:40:51.722Z,98.7
2022-10-22T04:43:51.757Z,98.7
2022-10-22T04:46:51.762Z,98.7
2022-10-22T04:49:51.846Z,98.8
2022-10-22T04:52:51.815Z,98.7
2022-10-22T04:55:51.857Z,98.7
2022-10-22T04:58:51.864Z,98.7
2022-10-22T05:01:51.875Z,98.7
2022-10-22T05:04:51.899Z,98.7
2022-10-22T05:07:51.919Z,98.7
2022-10-22T05:10:51.930Z,98.7
2022-10-22T05:13:51.998Z,98.7
2022-10-22T05:16:51.969Z,98.6
2022-10-22T05:19:51.996Z,98.6
2022-10-22T05:22:52.001Z,98.5
2022-10-22T05:25:52.031Z,98.4
2022-10-22T05:28:52.060Z,98.4
2022-10-22T05:31:52.103Z,98.3
2022-10-22T05:34:52.105Z,98.3
2022-10-22T05:37:52.169Z,98.2
2022-10-22T05:40:52.166Z,98.2
2022-10-22T05:43:52.192Z,98.2
2022-10-22T05:46:52.207Z,98.3
2022-10-22T05:49:52.263Z,98.4
2022-10-22T05:52:52.252Z,98.3
2022-10-22T05:55:52.267Z,98.3
2022-10-22T05:58:52.335Z,98.4
2022-10-22T06:01:52.361Z,98.3
2022-10-22T06:04:52.325Z,98.3
2022-10-22T06:07:52.365Z,98.3
2022-10-22T06:10:52.363Z,98.4
2022-10-22T06:13:52.404Z,98.4
2022-10-22T06:16:52.408Z,98.4
2022-10-22T06:19:52.457Z,98.4
2022-10-22T06:22:52.464Z,98.5
2022-10-22T06:25:52.524Z,98.6
2022-10-22T06:28:52.545Z,98.6
2022-10-22T06:31:52.543Z,98.7
2022-10-22T06:34:52.563Z,98.7
2022-10-22T06:37:52.594Z,98.8
2022-10-22T06:40:52.614Z,98.8
2022-10-22T06:43:52.666Z,98.8
2022-10-22T06:46:52.653Z,98.9
2022-10-22T06:49:52.677Z,98.9
2022-10-22T06:52:52.724Z,98.9
2022-10-22T06:55:52.719Z,98.9
2022-10-22T06:58:52.757Z,99
2022-10-22T07:01:52.828Z,99
2022-10-22T07:04:52.787Z,99
2022-10-22T07:07:52.811Z,99
2022-10-22T07:10:52.829Z,99.1
2022-10-22T07:13:52.874Z,99.1
2022-10-22T07:16:52.877Z,99.1
2022-10-22T07:19:52.940Z,99.1
2022-10-22T07:22:52.926Z,99.1
2022-10-22T07:25:52.964Z,99.1
2022-10-22T07:28:52.996Z,99.1
2022-10-22T07:31:53.006Z,99.1
2022-10-22T07:34:53.039Z,99.1
2022-10-22T07:37:53.087Z,99.1
2022-10-22T07:40:53.077Z,99
2022-10-22T07:43:53.122Z,98.9
2022-10-22T07:46:53.132Z,98.8
2022-10-22T07:49:53.148Z,98.7
2022-10-22T07:52:53.833Z,98.4
2022-10-22T07:55:53.193Z,98.2
2022-10-22T07:58:53.224Z,97.9
2022-10-22T08:01:53.201Z,97.4
2022-10-22T08:04:53.204Z,97.1
2022-10-22T08:07:53.215Z,96.6
2022-10-22T08:10:53.214Z,95.7
2022-10-22T08:13:53.262Z,95.2
2022-10-22T08:16:53.234Z,94.9
2022-10-22T08:19:53.227Z,94.8
2022-10-22T08:22:53.236Z,94.6
2022-10-22T08:25:53.229Z,94.5
2022-10-22T08:28:53.251Z,94.5
2022-10-22T08:31:53.268Z,94.3
2022-10-22T08:34:53.248Z,93.9
2022-10-22T08:37:53.245Z,91.9
2022-10-22T08:40:53.248Z,89.5
2022-10-22T08:43:53.259Z,88.5
2022-10-22T08:46:53.255Z,87.8
2022-10-22T08:49:53.285Z,85.6
2022-10-22T08:52:53.265Z,84
2022-10-22T08:55:53.267Z,83.2
2022-10-22T08:58:53.277Z,81.3
2022-10-22T09:01:53.263Z,80.2
2022-10-22T09:04:53.273Z,78.9
2022-10-22T09:07:53.302Z,78.4
2022-10-22T09:10:53.274Z,77.3
2022-10-22T09:13:53.286Z,76.2
2022-10-22T09:16:53.280Z,75
2022-10-22T09:19:53.303Z,73.9
2022-10-22T09:22:53.276Z,73.1
2022-10-22T09:25:53.299Z,72
2022-10-22T09:28:53.301Z,71.6
2022-10-22T09:31:53.282Z,70.9
2022-10-22T09:34:53.282Z,69.7
2022-10-22T09:37:53.283Z,68
2022-10-22T09:40:53.285Z,68.3
2022-10-22T09:43:53.340Z,68.8
2022-10-22T09:46:53.296Z,68.1
2022-10-22T09:49:53.285Z,66.7
2022-10-22T09:52:53.282Z,65.4
2022-10-22T09:55:53.358Z,66
2022-10-22T09:58:53.319Z,65.8
2022-10-22T10:01:53.315Z,65.1
2022-10-22T10:04:53.297Z,64.5
2022-10-22T10:07:53.294Z,64.3
2022-10-22T10:10:53.295Z,65
2022-10-22T10:13:53.310Z,64.3
2022-10-22T10:16:53.312Z,64.2
2022-10-22T10:19:53.325Z,62.9
2022-10-22T10:22:53.307Z,63.5
2022-10-22T10:25:53.303Z,62.5
2022-10-22T10:28:53.323Z,63.5
2022-10-22T10:31:53.306Z,62
2022-10-22T10:34:53.308Z,62.3
2022-10-22T10:37:53.364Z,62.2
2022-10-22T10:40:53.311Z,61.9
2022-10-22T10:43:53.319Z,61.7
2022-10-22T10:46:53.313Z,62.3
2022-10-22T10:49:53.319Z,62.9
2022-10-22T10:52:53.320Z,62.4
2022-10-22T10:55:53.343Z,63.2
2022-10-22T10:58:53.334Z,63.8
2022-10-22T11:01:53.345Z,63.9
2022-10-22T11:04:53.328Z,63.3
2022-10-22T11:07:55.848Z,64
2022-10-22T11:10:53.327Z,64.1
2022-10-22T11:13:53.374Z,64
2022-10-22T11:16:53.339Z,64.3
2022-10-22T11:19:55.701Z,63.4
2022-10-22T11:23:17.332Z,63.1
2022-10-22T11:25:53.336Z,63.7
2022-10-22T11:28:53.355Z,63.4
2022-10-22T11:31:53.367Z,63.9
2022-10-22T11:34:53.341Z,64.4
2022-10-22T11:37:53.350Z,65.4
2022-10-22T11:40:53.349Z,65.6
2022-10-22T11:43:53.379Z,65.3
2022-10-22T11:46:53.352Z,65.4
2022-10-22T11:49:53.377Z,66.1
2022-10-22T11:52:53.357Z,67
2022-10-22T11:55:53.365Z,67.1
2022-10-22T11:58:54.619Z,67.5
2022-10-22T12:01:53.371Z,68.1
2022-10-22T12:04:53.403Z,68.3
2022-10-22T12:07:53.394Z,69.6
2022-10-22T12:10:53.377Z,69.3
2022-10-22T12:13:53.392Z,70.1
2022-10-22T12:16:57.412Z,70.3
2022-10-22T12:19:53.762Z,70.5
2022-10-22T12:22:53.390Z,70.8
2022-10-22T12:25:53.420Z,71.1
2022-10-22T12:28:53.410Z,70.7
2022-10-22T12:31:53.400Z,71
2022-10-22T12:34:53.401Z,71.5
2022-10-22T12:37:53.406Z,72.2
2022-10-22T12:40:53.404Z,72.6
2022-10-22T12:43:53.464Z,72.9
2022-10-22T12:46:54.617Z,72.8
2022-10-22T12:49:53.413Z,72.7
2022-10-22T12:52:53.419Z,72.7
2022-10-22T12:55:53.420Z,73
2022-10-22T12:58:53.444Z,73.2
2022-10-22T13:01:53.455Z,73.2
2022-10-22T13:04:53.424Z,73.4
2022-10-22T13:07:53.434Z,74
2022-10-22T13:10:53.440Z,74.3
2022-10-22T13:13:53.454Z,74.6
2022-10-22T13:16:53.445Z,74.9
2022-10-22T13:19:53.484Z,74.9
2022-10-22T13:22:53.453Z,75.1
2022-10-22T13:25:53.453Z,75.4
2022-10-22T13:28:53.469Z,75.5
2022-10-22T13:31:53.460Z,74.2
2022-10-22T13:34:53.464Z,74.4
2022-10-22T13:37:53.495Z,74.5
2022-10-22T13:40:53.479Z,74.7
2022-10-22T13:43:53.488Z,75.2
2022-10-22T13:46:53.477Z,75.7
2022-10-22T13:49:53.519Z,75
2022-10-22T13:52:53.491Z,75.1
2022-10-22T13:55:53.549Z,74.8
2022-10-22T13:58:53.538Z,75.3
2022-10-22T14:01:53.509Z,75.2
2022-10-22T14:04:53.509Z,76.1
2022-10-22T14:07:53.518Z,76.1
2022-10-22T14:12:09.374Z,76.1
2022-10-22T14:15:09.372Z,76.6
2022-10-22T14:18:09.389Z,76.8
2022-10-22T14:21:09.406Z,76.9
2022-10-22T14:24:10.795Z,76.8
2022-10-22T14:27:09.436Z,76.7
2022-10-22T14:30:09.472Z,76.5
2022-10-22T14:33:09.478Z,76.2
2022-10-22T14:36:09.498Z,76.1
2022-10-22T14:39:09.529Z,76.4
2022-10-22T14:42:09.532Z,76.8
2022-10-22T14:45:09.558Z,77.3
2022-10-22T14:48:09.665Z,77.7
2022-10-22T14:51:09.591Z,78.3
2022-10-22T14:54:09.623Z,78.9
2022-10-22T14:57:09.635Z,79.4
2022-10-22T15:00:09.689Z,79.8
2022-10-22T15:03:09.681Z,80
2022-10-22T15:06:09.723Z,80.4
2022-10-22T15:09:09.846Z,80.6
2022-10-22T15:12:09.771Z,80.7
2022-10-22T15:15:09.761Z,81.3
2022-10-22T15:18:09.780Z,82.4
2022-10-22T15:21:09.794Z,83.7
2022-10-22T15:24:09.848Z,84.5
2022-10-22T15:27:09.839Z,83.9
2022-10-22T15:30:09.867Z,83.6
2022-10-22T15:33:09.888Z,83.8
2022-10-22T15:36:09.895Z,83.8
2022-10-22T15:39:09.951Z,83.9
2022-10-22T15:42:09.976Z,84.3
2022-10-22T15:45:09.976Z,84.8
2022-10-22T15:48:12.372Z,85.1
2022-10-22T15:51:10.029Z,85.5
2022-10-22T15:54:10.332Z,85.8
2022-10-22T15:57:10.070Z,86.2
2022-10-22T16:00:10.111Z,86.6
2022-10-22T16:03:10.114Z,87
2022-10-22T16:06:10.129Z,87.3
2022-10-22T16:09:10.218Z,87.3
2022-10-22T16:12:10.754Z,87.3
2022-10-22T16:15:10.181Z,87.6
2022-10-22T16:18:10.225Z,88
2022-10-22T16:21:10.222Z,88.6
2022-10-22T16:24:10.272Z,89.3
2022-10-22T16:27:10.277Z,89.8
2022-10-22T16:30:10.291Z,90.1
2022-10-22T16:33:10.319Z,90.4
2022-10-22T16:36:10.364Z,90.8
2022-10-22T16:39:10.372Z,91.3
2022-10-22T16:42:10.385Z,91.8
2022-10-22T16:45:10.459Z,92.1
2022-10-22T16:48:10.428Z,92.4
2022-10-22T16:51:10.451Z,92.8
2022-10-22T16:54:11.532Z,92.9
2022-10-22T16:57:10.477Z,93.1
2022-10-22T17:00:10.486Z,93.2
2022-10-22T17:03:17.408Z,93.3
2022-10-22T17:06:17.393Z,93.4
2022-10-22T17:09:17.536Z,93.4
2022-10-22T17:12:17.430Z,93.4
2022-10-22T17:15:17.445Z,93.1
2022-10-22T17:18:17.483Z,93
2022-10-22T17:21:17.491Z,93.1
2022-10-22T17:24:17.538Z,93.3
2022-10-22T17:27:17.564Z,93.4
2022-10-22T17:30:17.550Z,93.3
2022-10-22T17:33:17.578Z,93.1
2022-10-22T17:36:17.610Z,92.9
2022-10-22T17:39:17.656Z,92.6
2022-10-22T17:42:17.657Z,92.3
2022-10-22T17:45:17.792Z,92.1
2022-10-22T17:48:17.708Z,91.8
2022-10-22T17:51:17.729Z,91.6
2022-10-22T17:54:17.772Z,91.5
2022-10-22T17:57:17.782Z,91.2
2022-10-22T18:03:17.841Z,90.4
2022-10-22T18:06:17.837Z,90.1
2022-10-22T18:09:18.394Z,89.9
2022-10-22T18:12:17.879Z,89.8
2022-10-22T18:15:17.907Z,89.6
2022-10-22T18:18:17.933Z,89.5
2022-10-22T18:21:17.960Z,89.5
2022-10-22T18:24:17.978Z,89.4
2022-10-22T18:27:18.003Z,89.3
2022-10-22T18:30:18.033Z,89.1
2022-10-22T18:33:18.048Z,89
2022-10-22T18:36:18.070Z,89.1
2022-10-22T18:39:18.124Z,88.9
2022-10-22T18:42:18.126Z,88.9
2022-10-22T18:45:18.135Z,88.7
2022-10-22T18:48:18.161Z,88.7
2022-10-22T18:51:18.195Z,88.5
2022-10-22T18:54:22.962Z,88.3
2022-10-22T18:57:18.223Z,88.1
2022-10-22T19:00:18.223Z,88
2022-10-22T19:03:18.250Z,88
2022-10-22T19:06:18.273Z,88
2022-10-22T19:09:18.377Z,88
2022-10-22T19:12:18.299Z,87.9
2022-10-22T19:15:18.401Z,87.9
2022-10-22T19:18:18.341Z,88
2022-10-22T19:21:18.360Z,88.2
2022-10-22T19:24:18.385Z,88.2
2022-10-22T19:27:18.401Z,88.2
2022-10-22T19:30:18.424Z,88.2
2022-10-22T19:33:18.472Z,88.3
2022-10-22T19:36:18.480Z,88.2
2022-10-22T19:39:18.509Z,88.1
2022-10-22T19:42:18.516Z,87.9
2022-10-22T19:45:18.535Z,87.8
2022-10-22T19:48:18.550Z,87.5
2022-10-22T19:51:18.602Z,87.4
2022-10-22T19:54:18.606Z,87.5
2022-10-22T19:57:18.617Z,87.4
2022-10-22T20:00:18.717Z,87.4
2022-10-22T20:03:18.648Z,87.4
2022-10-22T20:06:18.664Z,87.3
2022-10-22T20:09:18.978Z,87
2022-10-22T20:12:18.715Z,86.7
2022-10-22T20:15:18.747Z,86.5
2022-10-22T20:18:18.776Z,86.3
2022-10-22T20:21:18.801Z,86.3
2022-10-22T20:24:18.839Z,86.5
2022-10-22T20:27:18.878Z,86.6
2022-10-22T20:30:18.880Z,86.7
2022-10-22T20:33:18.890Z,86.6
2022-10-22T20:36:18.913Z,86.5
2022-10-22T20:39:18.930Z,86.4
2022-10-22T20:42:18.939Z,86.4
2022-10-22T20:45:18.987Z,86.2
2022-10-22T20:48:18.986Z,86.1
2022-10-22T20:51:19.003Z,86
2022-10-22T20:54:19.036Z,86
2022-10-22T20:57:19.028Z,85.9
2022-10-22T21:00:19.049Z,85.9
2022-10-22T21:03:19.102Z,85.9
2022-10-22T21:06:19.100Z,86
2022-10-22T21:09:19.212Z,86.1
2022-10-22T21:12:19.150Z,86.3
2022-10-22T21:15:19.173Z,86.6
2022-10-22T21:18:19.204Z,86.9
2022-10-22T21:21:19.251Z,87.1
2022-10-22T21:24:19.245Z,87.2
2022-10-22T21:27:19.246Z,87.3
2022-10-22T21:30:19.264Z,87.4
2022-10-22T21:33:19.275Z,87.5
2022-10-22T21:36:22.592Z,87.4
2022-10-22T21:39:19.337Z,87.4
2022-10-22T21:42:19.306Z,87.5
2022-10-22T21:45:22.200Z,87.6
2022-10-22T21:48:19.335Z,87.7
2022-10-22T21:51:19.348Z,87.8
2022-10-22T21:54:19.375Z,88.1
2022-10-22T21:57:19.399Z,88.3
2022-10-22T22:00:19.389Z,88.7
2022-10-22T22:03:19.399Z,89.1
2022-10-22T22:06:20.550Z,89.3
2022-10-22T22:09:19.502Z,89.4
2022-10-22T22:12:19.444Z,89.8
2022-10-22T22:15:19.493Z,90.1
2022-10-22T22:18:19.476Z,90.4
2022-10-22T22:21:19.499Z,90.6
2022-10-22T22:24:19.522Z,90.6
2022-10-22T22:30:19.536Z,91
2022-10-22T22:33:19.568Z,91.3
2022-10-22T22:36:19.543Z,91.7
2022-10-22T22:39:19.561Z,91.9
2022-10-22T22:42:19.567Z,92.1
2022-10-22T22:45:19.621Z,92.3
2022-10-22T22:48:19.632Z,92.4
2022-10-22T22:51:19.654Z,92.6
2022-10-22T22:54:19.609Z,93
2022-10-22T22:57:19.605Z,93.1
2022-10-22T23:00:19.608Z,93.3
2022-10-22T23:03:19.609Z,93.5
2022-10-22T23:06:19.612Z,93.8
2022-10-22T23:12:19.637Z,94.3
2022-10-22T23:15:19.649Z,94.3
2022-10-22T23:18:19.650Z,94.2
2022-10-22T23:21:19.658Z,94.1
2022-10-22T23:24:19.679Z,94.2
2022-10-22T23:27:19.698Z,94.2
2022-10-22T23:30:19.692Z,94.3
2022-10-22T23:33:19.704Z,94.5
2022-10-22T23:36:19.707Z,94.6
2022-10-22T23:39:19.729Z,94.7
2022-10-22T23:42:19.712Z,94.9
2022-10-22T23:45:19.743Z,95
2022-10-22T23:48:19.725Z,95
2022-10-22T23:51:19.730Z,95.1
2022-10-22T23:54:19.746Z,95.1
2022-10-22T23:57:19.744Z,95.1
